createdAt,value
2022-10-05T00:04:30.150Z,14.10
2022-10-05T00:09:34.748Z,14.10
2022-10-05T00:14:39.003Z,14.20
2022-10-05T00:19:52.142Z,14.20
2022-10-05T00:24:59.908Z,14.00
2022-10-05T00:30:13.813Z,13.70
2022-10-05T00:35:18.028Z,14.00
2022-10-05T00:40:42.933Z,14.10
2022-10-05T00:45:52.559Z,13.70
2022-10-05T00:51:14.208Z,13.70
2022-10-05T00:56:36.586Z,14.00
2022-10-05T01:01:48.519Z,14.00
2022-10-05T01:07:05.362Z,14.00
2022-10-05T01:12:13.870Z,13.90
2022-10-05T01:17:24.902Z,13.30
2022-10-05T01:22:41.860Z,13.20
2022-10-05T01:27:58.538Z,13.30
2022-10-05T01:33:10.367Z,13.40
2022-10-05T01:38:25.101Z,13.60
2022-10-05T01:43:35.222Z,13.60
2022-10-05T01:48:48.577Z,13.50
2022-10-05T01:54:03.905Z,13.60
2022-10-05T01:59:18.783Z,13.50
2022-10-05T02:04:59.855Z,13.60
2022-10-05T02:09:59.475Z,13.70
2022-10-05T02:15:11.607Z,13.90
2022-10-05T02:20:21.777Z,14.00
2022-10-05T02:25:29.907Z,14.10
2022-10-05T02:30:39.948Z,14.20
2022-10-05T02:35:43.634Z,14.30
2022-10-05T02:40:55.730Z,14.30
2022-10-05T02:46:10.394Z,14.20
2022-10-05T02:51:20.996Z,14.20
2022-10-05T02:56:30.980Z,13.80
2022-10-05T03:01:41.934Z,13.70
2022-10-05T03:06:54.543Z,13.70
2022-10-05T03:12:12.465Z,13.80
2022-10-05T03:17:20.559Z,13.80
2022-10-05T03:22:38.640Z,13.80
2022-10-05T03:27:46.161Z,13.70
2022-10-05T03:33:00.734Z,13.80
2022-10-05T03:38:13.406Z,13.60
2022-10-05T03:43:35.800Z,13.70
2022-10-05T03:48:48.109Z,13.80
2022-10-05T03:54:06.805Z,13.80
2022-10-05T03:59:14.385Z,14.00
2022-10-05T04:04:25.097Z,14.00
2022-10-05T04:09:32.824Z,14.00
2022-10-05T04:14:41.474Z,14.00
2022-10-05T04:19:53.470Z,14.00
2022-10-05T04:25:02.293Z,13.70
2022-10-05T04:30:12.345Z,13.40
2022-10-05T04:35:39.081Z,13.20
2022-10-05T04:40:55.006Z,13.10
2022-10-05T04:46:17.172Z,12.80
2022-10-05T04:51:37.318Z,12.80
2022-10-05T04:56:46.777Z,12.80
2022-10-05T05:02:06.717Z,12.90
2022-10-05T05:07:26.029Z,12.90
2022-10-05T05:12:45.136Z,12.90
2022-10-05T05:18:05.909Z,12.80
2022-10-05T05:23:19.839Z,12.80
2022-10-05T05:28:30.985Z,12.80
2022-10-05T05:33:43.750Z,12.80
2022-10-05T05:39:01.410Z,12.70
2022-10-05T05:44:14.347Z,12.80
2022-10-05T05:49:24.574Z,12.40
2022-10-05T05:54:37.434Z,12.20
2022-10-05T05:59:54.456Z,12.20
2022-10-05T06:05:03.824Z,12.00
2022-10-05T06:10:30.347Z,11.90
2022-10-05T06:15:43.866Z,12.30
2022-10-05T06:20:54.347Z,12.50
2022-10-05T06:26:13.873Z,12.30
2022-10-05T06:31:29.651Z,12.50
2022-10-05T06:36:44.239Z,12.40
2022-10-05T06:42:06.325Z,12.40
2022-10-05T06:47:35.937Z,12.10
2022-10-05T06:53:21.016Z,12.30
2022-10-05T06:58:49.477Z,12.40
2022-10-05T07:04:06.547Z,12.60
2022-10-05T07:09:24.416Z,12.80
2022-10-05T07:14:41.526Z,12.90
2022-10-05T07:19:52.523Z,13.10
2022-10-05T07:25:03.333Z,13.40
2022-10-05T07:30:11.675Z,13.70
2022-10-05T07:35:42.863Z,13.80
2022-10-05T07:40:50.553Z,13.80
2022-10-05T07:46:00.625Z,14.00
2022-10-05T07:51:10.299Z,14.20
2022-10-05T07:56:21.926Z,14.30
2022-10-05T08:01:30.038Z,14.50
2022-10-05T08:06:48.964Z,14.60
2022-10-05T08:11:58.637Z,14.70
2022-10-05T08:17:07.171Z,14.80
2022-10-05T08:22:13.832Z,14.90
2022-10-05T08:27:21.014Z,15.00
2022-10-05T08:32:28.605Z,15.10
2022-10-05T08:37:35.459Z,15.30
2022-10-05T08:42:53.018Z,15.70
2022-10-05T08:48:13.089Z,16.30
2022-10-05T08:53:39.015Z,16.60
2022-10-05T08:59:01.960Z,16.80
2022-10-05T09:04:26.295Z,16.90
2022-10-05T09:09:50.450Z,16.70
2022-10-05T09:15:25.550Z,17.10
2022-10-05T09:20:42.509Z,17.80
2022-10-05T09:25:58.006Z,17.90
2022-10-05T09:31:26.319Z,18.00
2022-10-05T09:37:02.805Z,18.10
2022-10-05T09:42:44.410Z,18.30
2022-10-05T09:48:23.818Z,18.50
2022-10-05T09:53:52.499Z,18.70
2022-10-05T09:59:24.714Z,19.00
2022-10-05T10:05:13.395Z,19.30
2022-10-05T10:10:45.189Z,19.50
2022-10-05T10:16:09.706Z,20.00
2022-10-05T10:21:46.697Z,20.10
2022-10-05T10:27:17.359Z,20.30
2022-10-05T10:32:53.938Z,20.40
2022-10-05T10:38:34.210Z,20.40
2022-10-05T10:44:07.442Z,20.80
2022-10-05T10:49:26.801Z,21.00
2022-10-05T10:54:57.010Z,21.20
2022-10-05T11:00:28.226Z,21.10
2022-10-05T11:05:55.062Z,21.20
2022-10-05T11:11:18.568Z,21.40
2022-10-05T11:16:48.587Z,21.60
2022-10-05T11:22:10.676Z,21.70
2022-10-05T11:27:28.149Z,21.80
2022-10-05T11:33:17.313Z,21.90
2022-10-05T11:38:42.222Z,22.10
2022-10-05T11:44:33.428Z,22.10
2022-10-05T11:49:45.763Z,22.30
2022-10-05T11:55:16.644Z,22.30
2022-10-05T12:00:21.916Z,22.30
2022-10-05T12:05:34.137Z,22.30
2022-10-05T12:10:49.705Z,22.40
2022-10-05T12:15:58.198Z,22.50
2022-10-05T12:21:06.596Z,22.40
2022-10-05T12:26:15.804Z,22.50
2022-10-05T12:31:32.176Z,22.70
2022-10-05T12:43:02.996Z,22.70
2022-10-05T12:48:42.441Z,22.80
2022-10-05T13:14:51.685Z,23.00
2022-10-05T13:20:00.422Z,23.20
2022-10-05T13:25:20.703Z,23.10
2022-10-05T13:30:34.699Z,23.10
2022-10-05T13:35:45.826Z,23.20
2022-10-05T13:40:58.942Z,23.20
2022-10-05T13:46:09.920Z,23.30
2022-10-05T13:51:19.439Z,23.40
2022-10-05T13:56:26.802Z,23.60
2022-10-05T14:01:42.211Z,23.50
2022-10-05T14:06:47.216Z,23.40
2022-10-05T14:11:51.866Z,23.50
2022-10-05T14:16:59.017Z,23.50
2022-10-05T14:22:04.389Z,23.30
2022-10-05T14:27:21.891Z,23.30
2022-10-05T14:32:30.664Z,23.40
2022-10-05T14:37:44.165Z,23.40
2022-10-05T14:42:47.500Z,23.50
2022-10-05T14:47:53.576Z,23.40
2022-10-05T14:53:16.616Z,23.40
2022-10-05T14:58:44.995Z,23.40
2022-10-05T15:03:59.253Z,23.40
2022-10-05T15:09:17.974Z,23.50
2022-10-05T15:14:25.269Z,23.40
2022-10-05T15:19:41.260Z,23.50
2022-10-05T15:24:55.920Z,23.50
2022-10-05T15:30:09.427Z,23.40
2022-10-05T15:35:45.335Z,23.40
2022-10-05T15:41:08.077Z,23.30
2022-10-05T15:46:16.669Z,23.40
2022-10-05T15:51:50.763Z,23.30
2022-10-05T15:56:58.354Z,23.30
2022-10-05T16:02:07.807Z,23.20
2022-10-05T16:07:37.434Z,23.20
2022-10-05T16:12:51.522Z,23.00
2022-10-05T16:18:32.224Z,22.90
2022-10-05T16:23:48.124Z,22.70
2022-10-05T16:29:00.928Z,22.70
2022-10-05T16:34:17.103Z,22.50
2022-10-05T16:39:40.777Z,22.50
2022-10-05T16:44:50.497Z,22.40
2022-10-05T16:50:00.951Z,22.30
2022-10-05T16:55:12.140Z,22.20
2022-10-05T17:00:21.590Z,22.20
2022-10-05T17:05:38.892Z,22.20
2022-10-05T17:11:00.641Z,22.10
2022-10-05T17:16:10.760Z,22.00
2022-10-05T17:21:18.980Z,22.00
2022-10-05T17:26:48.173Z,22.00
2022-10-05T17:32:12.114Z,21.90
2022-10-05T17:37:35.308Z,21.90
2022-10-05T17:42:49.691Z,21.80
2022-10-05T17:47:56.676Z,21.70
2022-10-05T17:53:40.161Z,21.70
2022-10-05T17:59:06.682Z,21.50
2022-10-05T18:04:42.209Z,21.50
2022-10-05T18:09:56.604Z,21.50
2022-10-05T18:15:22.317Z,21.40
2022-10-05T18:20:31.469Z,21.40
2022-10-05T18:25:44.707Z,21.50
2022-10-05T18:31:05.109Z,21.50
2022-10-05T18:36:20.995Z,21.40
2022-10-05T18:41:35.027Z,21.30
2022-10-05T18:46:49.319Z,21.30
2022-10-05T18:52:01.331Z,21.30
2022-10-05T18:57:36.675Z,21.30
2022-10-05T19:02:45.675Z,21.30
2022-10-05T19:08:00.037Z,21.30
2022-10-05T19:13:15.703Z,21.20
2022-10-05T19:18:38.701Z,21.20
2022-10-05T19:23:58.614Z,21.20
2022-10-05T19:29:11.273Z,21.00
2022-10-05T19:34:27.620Z,21.00
2022-10-05T19:39:36.700Z,21.00
2022-10-05T19:44:52.240Z,21.00
2022-10-05T19:50:19.811Z,21.10
2022-10-05T19:55:32.475Z,21.00
2022-10-05T20:00:37.732Z,21.00
2022-10-05T20:05:42.134Z,21.10
2022-10-05T20:10:46.220Z,21.10
2022-10-05T20:16:25.552Z,21.10
2022-10-05T20:21:48.006Z,21.00
2022-10-05T20:27:05.903Z,20.90
2022-10-05T20:32:12.219Z,20.90
2022-10-05T20:37:18.097Z,20.90
2022-10-05T20:42:22.942Z,20.90
2022-10-05T20:47:26.229Z,20.90
2022-10-05T20:52:31.314Z,20.90
2022-10-05T20:57:42.973Z,20.90
2022-10-05T21:02:47.029Z,20.80
2022-10-05T21:07:51.415Z,20.90
2022-10-05T21:12:54.317Z,20.90
2022-10-05T21:17:57.575Z,20.90
2022-10-05T21:23:01.892Z,20.80
2022-10-05T21:28:06.372Z,20.80
2022-10-05T21:33:09.474Z,20.80
2022-10-05T21:38:14.220Z,20.80
2022-10-05T21:43:17.161Z,20.80
2022-10-05T21:48:20.305Z,20.70
2022-10-05T21:53:28.393Z,20.80
2022-10-05T21:58:31.855Z,20.60
2022-10-05T22:03:34.865Z,20.60
2022-10-05T22:08:39.825Z,20.60
2022-10-05T22:13:45.123Z,20.70
2022-10-05T22:18:49.562Z,20.60
2022-10-05T22:23:53.807Z,20.70
2022-10-05T22:28:57.027Z,20.60
2022-10-05T22:33:59.953Z,20.60
2022-10-05T22:39:04.625Z,20.60
2022-10-05T22:44:07.535Z,20.60
2022-10-05T22:49:10.506Z,20.60
2022-10-05T22:54:14.764Z,20.60
2022-10-05T22:59:17.789Z,20.50
2022-10-05T23:04:20.677Z,20.50
2022-10-05T23:09:24.916Z,20.40
2022-10-05T23:14:29.279Z,20.40
2022-10-05T23:19:32.166Z,20.50
2022-10-05T23:24:36.429Z,20.50
2022-10-05T23:29:39.311Z,20.50
2022-10-05T23:34:42.196Z,20.40
2022-10-05T23:39:46.452Z,20.40
2022-10-05T23:44:49.315Z,20.40
2022-10-05T23:49:52.214Z,20.50
2022-10-05T23:54:56.499Z,20.40
